This is the latest recevied weather packets stored in our database for station/object HB9ZRH-10. If no packets are shown the sender has not sent any weather packets the latest 10 day(s).
| Time | Temp. | Humidity | Pressure | Rain* | Wind** | Luminosity | Snow |
|---|---|---|---|---|---|---|---|
| 1777870542 | 26.11° C | 39% | 1014.9 hPa | - | - | - | - |
| 1777870242 | 26.11° C | 39% | 1014.9 hPa | - | - | - | - |
| 1777869942 | 25° C | 40% | 1014.9 hPa | - | - | - | - |
| 1777869642 | 23.33° C | 42% | 1015 hPa | - | - | - | - |
| 1777869342 | 20° C | 44% | 1015.1 hPa | - | - | - | - |
| 1777869042 | 19.44° C | 44% | 1015.1 hPa | - | - | - | - |
| 1777868742 | 20° C | 44% | 1015.1 hPa | - | - | - | - |
| 1777868442 | 20.56° C | 44% | 1015.1 hPa | - | - | - | - |
| 1777868142 | 19.44° C | 44% | 1015.1 hPa | - | - | - | - |
| 1777867842 | 19.44° C | 44% | 1015.2 hPa | - | - | - | - |
| 1777867542 | 18.89° C | 44% | 1015.1 hPa | - | - | - | - |
| 1777867242 | 19.44° C | 44% | 1015.1 hPa | - | - | - | - |
| 1777866942 | 17.78° C | 45% | 1015.1 hPa | - | - | - | - |
| 1777866642 | 16.11° C | 45% | 1015.2 hPa | - | - | - | - |
| 1777866342 | 16.11° C | 45% | 1015.2 hPa | - | - | - | - |
| 1777866042 | 17.22° C | 45% | 1015.3 hPa | - | - | - | - |
| 1777865742 | 19.44° C | 43% | 1015.3 hPa | - | - | - | - |
| 1777865442 | 22.78° C | 41% | 1015.2 hPa | - | - | - | - |
| 1777865142 | 23.89° C | 41% | 1015.1 hPa | - | - | - | - |
| 1777864842 | 20° C | 43% | 1015.2 hPa | - | - | - | - |
| 1777864542 | 17.78° C | 44% | 1015.4 hPa | - | - | - | - |
| 1777864242 | 18.89° C | 43% | 1015.4 hPa | - | - | - | - |
| 1777863942 | 20° C | 42% | 1015.4 hPa | - | - | - | - |
| 1777863642 | 21.11° C | 42% | 1015.5 hPa | - | - | - | - |
| 1777863342 | 22.22° C | 40% | 1015.5 hPa | - | - | - | - |
* Rain since midnight (hover to see other rain measurements)
** Current wind speed in m/s (hover to see current wind gust speed)